Time;durP1;ratioP1;P1;durP2;ratioP2;P2;SDS_P1;SDS_P2;PMS_P1;PMS_P2;Temp;Humidity;BMP_temperature;BMP_pressure;BME280_temperature;BME280_humidity;BME280_pressure;Samples;Min_cycle;Max_cycle;Signal;HPM_P1;HPM_P2
2023/09/08 00:02:07;;;;;;;7.53;5.20;;;20.40;99.90;;;;;;5088170;28;20044;-83
2023/09/08 00:04:35;;;;;;;16.23;5.70;;;20.40;99.90;;;;;;5070110;28;20028;-83
2023/09/08 00:07:01;;;;;;;13.25;4.95;;;20.40;99.90;;;;;;5071865;28;20028;-86
2023/09/08 00:09:27;;;;;;;6.50;4.03;;;20.40;99.90;;;;;;5071684;28;20121;-85
2023/09/08 00:11:54;;;;;;;6.00;4.50;;;20.40;99.90;;;;;;5088537;28;20091;-86
2023/09/08 00:14:20;;;;;;;6.35;4.55;;;20.40;99.90;;;;;;5088138;28;20066;-86
2023/09/08 00:16:51;;;;;;;6.50;4.57;;;20.40;99.90;;;;;;5088901;28;20067;-85
2023/09/08 00:19:16;;;;;;;10.60;5.07;;;20.40;99.90;;;;;;5069958;28;20455;-85
2023/09/08 00:21:44;;;;;;;6.20;4.72;;;20.40;99.90;;;;;;5088518;28;20024;-85
2023/09/08 00:24:11;;;;;;;6.65;4.38;;;20.40;99.90;;;;;;5071027;28;20452;-84
2023/09/08 00:26:36;;;;;;;8.07;4.95;;;20.40;99.90;;;;;;5070201;28;20023;-85
2023/09/08 00:29:02;;;;;;;7.93;5.13;;;20.40;99.90;;;;;;5071289;28;20035;-84
2023/09/08 00:31:27;;;;;;;6.13;4.13;;;20.40;99.90;;;;;;5087838;28;20023;-85
2023/09/08 00:33:53;;;;;;;9.52;4.43;;;20.40;99.90;;;;;;5086122;28;20024;-81
2023/09/08 00:36:19;;;;;;;5.95;4.13;;;20.40;99.90;;;;;;5070255;28;20035;-83
2023/09/08 00:38:47;;;;;;;11.27;5.03;;;20.30;99.90;;;;;;5069873;28;20028;-85
2023/09/08 00:41:13;;;;;;;7.13;4.45;;;20.30;99.90;;;;;;5068574;28;20464;-85
2023/09/08 00:43:38;;;;;;;5.20;4.13;;;20.30;99.90;;;;;;5070132;28;20157;-86
2023/09/08 00:46:05;;;;;;;4.28;3.50;;;20.30;99.90;;;;;;5070225;28;20020;-84
2023/09/08 00:48:36;;;;;;;4.85;3.92;;;20.30;99.90;;;;;;5087335;28;20358;-84
2023/09/08 00:51:02;;;;;;;7.55;4.68;;;20.30;99.90;;;;;;5067531;28;20429;-83
2023/09/08 00:53:28;;;;;;;6.65;4.22;;;20.30;99.90;;;;;;5069585;28;20043;-83
2023/09/08 00:55:56;;;;;;;9.00;4.03;;;20.20;99.90;;;;;;5069572;28;20028;-87
2023/09/08 00:58:25;;;;;;;5.75;3.95;;;20.20;99.90;;;;;;5067877;28;20024;-85
2023/09/08 01:00:50;;;;;;;5.80;3.53;;;20.20;99.90;;;;;;5070152;28;20035;-87
2023/09/08 01:03:16;;;;;;;6.40;4.03;;;20.10;99.90;;;;;;5067263;28;20020;-86
2023/09/08 01:05:42;;;;;;;7.57;5.07;;;20.10;99.90;;;;;;5088334;28;20024;-86
2023/09/08 01:08:09;;;;;;;6.13;4.20;;;20.10;99.90;;;;;;5067944;28;20020;-83
2023/09/08 01:10:37;;;;;;;9.98;4.68;;;20.10;99.90;;;;;;5074586;28;20044;-87
2023/09/08 01:13:06;;;;;;;4.95;4.30;;;20.10;99.90;;;;;;5091021;28;20032;-87
2023/09/08 01:15:31;;;;;;;9.07;4.28;;;20.10;99.90;;;;;;5071118;28;20031;-84
2023/09/08 01:17:57;;;;;;;7.88;3.75;;;20.10;99.90;;;;;;5073853;28;20043;-83
2023/09/08 01:20:27;;;;;;;7.93;4.47;;;20.10;99.90;;;;;;5070206;28;20040;-85
2023/09/08 01:23:15;;;;;;;6.90;4.60;;;20.00;99.90;;;;;;5071511;28;20063;-84
2023/09/08 01:25:57;;;;;;;11.18;5.28;;;20.00;99.90;;;;;;5073021;28;20032;-85
2023/09/08 01:28:23;;;;;;;6.32;4.10;;;19.90;99.90;;;;;;5090969;28;20025;-83
2023/09/08 01:30:50;;;;;;;5.55;4.38;;;19.90;99.90;;;;;;5092688;28;20108;-87
2023/09/08 01:33:16;;;;;;;7.30;4.65;;;19.80;99.90;;;;;;5071849;28;20425;-86
2023/09/08 01:35:43;;;;;;;7.57;5.25;;;19.80;99.90;;;;;;5073412;28;20087;-83
2023/09/08 01:38:11;;;;;;;10.27;5.10;;;19.70;99.90;;;;;;5073183;28;20032;-85
2023/09/08 01:40:36;;;;;;;7.15;4.90;;;19.70;99.90;;;;;;5072441;28;20024;-81
2023/09/08 01:43:02;;;;;;;9.48;4.95;;;19.60;99.90;;;;;;5070426;28;20819;-87
2023/09/08 01:45:27;;;;;;;7.13;4.78;;;19.60;99.90;;;;;;5091938;28;20043;-83
2023/09/08 01:47:53;;;;;;;5.65;4.22;;;19.60;99.90;;;;;;5071538;28;20058;-86
2023/09/08 01:50:22;;;;;;;6.90;4.43;;;19.60;99.90;;;;;;5072324;28;20020;-83
2023/09/08 01:52:48;;;;;;;8.07;4.78;;;19.50;99.90;;;;;;5073319;28;20031;-86
2023/09/08 01:55:15;;;;;;;8.40;5.10;;;19.50;99.90;;;;;;5072603;28;20059;-83
2023/09/08 01:57:40;;;;;;;8.35;4.85;;;19.40;99.90;;;;;;5091380;28;20089;-83
2023/09/08 02:00:06;;;;;;;8.18;5.20;;;19.40;99.90;;;;;;5072625;28;20036;-86
2023/09/08 02:02:34;;;;;;;9.68;4.82;;;19.40;99.90;;;;;;5072684;28;20024;-86
2023/09/08 02:05:00;;;;;;;8.57;5.05;;;19.30;99.90;;;;;;5091073;28;20031;-85
2023/09/08 02:07:25;;;;;;;8.52;5.20;;;19.30;99.90;;;;;;5074013;28;20028;-83
2023/09/08 02:09:51;;;;;;;8.23;4.93;;;19.20;99.90;;;;;;5073524;28;20062;-84
2023/09/08 02:12:16;;;;;;;6.70;4.93;;;19.20;99.90;;;;;;5074591;28;20036;-82
2023/09/08 02:14:44;;;;;;;8.85;4.70;;;19.10;99.90;;;;;;5093261;28;20036;-83
2023/09/08 02:17:10;;;;;;;8.00;5.18;;;19.10;99.90;;;;;;5076423;28;20109;-82
2023/09/08 02:19:35;;;;;;;8.32;4.78;;;19.00;99.90;;;;;;5074640;28;20040;-83
2023/09/08 02:22:01;;;;;;;8.30;5.20;;;19.00;99.90;;;;;;5074401;28;20062;-82
2023/09/08 02:24:27;;;;;;;6.90;4.82;;;19.00;99.90;;;;;;5079215;28;20042;-82
2023/09/08 02:26:53;;;;;;;11.90;5.63;;;19.00;99.90;;;;;;5075169;28;20048;-82
2023/09/08 02:29:18;;;;;;;5.93;4.97;;;19.00;99.90;;;;;;5093742;28;20020;-82
2023/09/08 02:31:45;;;;;;;6.03;4.32;;;19.00;99.90;;;;;;5074372;28;20471;-83
2023/09/08 02:34:12;;;;;;;6.95;5.10;;;19.00;99.90;;;;;;5090535;28;20031;-86
2023/09/08 02:36:38;;;;;;;7.38;4.75;;;18.90;99.90;;;;;;5090780;28;20631;-83
2023/09/08 02:39:04;;;;;;;5.85;5.05;;;18.90;99.90;;;;;;5090586;28;20119;-85
2023/09/08 02:41:30;;;;;;;6.10;4.72;;;19.00;99.90;;;;;;5075714;28;20032;-80
2023/09/08 02:43:56;;;;;;;9.32;5.38;;;18.90;99.90;;;;;;5075166;28;20065;-85
2023/09/08 02:46:22;;;;;;;10.13;5.53;;;18.90;99.90;;;;;;5075337;28;20031;-85
2023/09/08 02:48:47;;;;;;;5.38;4.80;;;18.90;99.90;;;;;;5073800;28;20136;-81
2023/09/08 02:51:15;;;;;;;6.30;5.15;;;18.90;99.90;;;;;;5072409;28;20096;-83
2023/09/08 02:53:41;;;;;;;7.57;4.78;;;18.80;99.90;;;;;;5092019;28;20035;-82
2023/09/08 02:56:07;;;;;;;6.60;4.80;;;18.80;99.90;;;;;;5070645;28;20479;-86
2023/09/08 02:58:38;;;;;;;7.95;5.07;;;18.70;99.90;;;;;;5093236;28;20047;-82
2023/09/08 03:01:15;;;;;;;6.18;4.53;;;18.70;99.90;;;;;;5088205;28;20447;-80
2023/09/08 03:03:41;;;;;;;6.88;4.85;;;18.60;99.90;;;;;;5088212;28;20149;-82
2023/09/08 03:06:08;;;;;;;5.65;4.80;;;18.60;99.90;;;;;;5078917;28;20047;-82
2023/09/08 03:08:34;;;;;;;9.20;4.40;;;18.60;99.90;;;;;;5075933;28;20036;-82
2023/09/08 03:11:00;;;;;;;9.07;5.32;;;18.60;99.90;;;;;;5075144;28;20364;-82
2023/09/08 03:13:26;;;;;;;7.65;5.10;;;18.50;99.90;;;;;;5079610;28;20439;-81
2023/09/08 03:15:52;;;;;;;10.32;5.43;;;18.60;99.90;;;;;;5092968;28;20039;-81
2023/09/08 03:18:18;;;;;;;10.65;5.55;;;18.60;99.90;;;;;;5078826;28;20040;-86
2023/09/08 03:20:49;;;;;;;8.65;5.43;;;18.60;99.90;;;;;;5078774;28;20060;-84
2023/09/08 03:23:17;;;;;;;6.32;4.15;;;18.60;99.90;;;;;;5078331;28;20027;-81
2023/09/08 03:25:43;;;;;;;8.15;5.32;;;18.60;99.90;;;;;;5074522;28;20024;-82
2023/09/08 03:28:09;;;;;;;9.75;4.95;;;18.60;99.90;;;;;;5079221;28;20119;-81
2023/09/08 03:30:34;;;;;;;7.30;5.22;;;18.60;99.90;;;;;;5077540;28;20784;-82
2023/09/08 03:33:00;;;;;;;9.65;4.82;;;18.50;99.90;;;;;;5076868;28;20027;-82
2023/09/08 03:35:25;;;;;;;12.00;5.40;;;18.50;99.90;;;;;;5077125;28;20100;-82
2023/09/08 03:37:53;;;;;;;8.10;4.28;;;18.50;99.90;;;;;;5081530;28;20829;-80
2023/09/08 03:40:21;;;;;;;6.20;4.55;;;18.50;99.90;;;;;;5080866;28;20446;-82
2023/09/08 03:42:46;;;;;;;5.60;4.78;;;18.40;99.90;;;;;;5086557;28;20024;-80
2023/09/08 03:45:12;;;;;;;7.32;4.95;;;18.40;99.90;;;;;;5098559;28;20057;-82
2023/09/08 03:47:37;;;;;;;8.57;5.15;;;18.40;99.90;;;;;;5099416;28;20050;-81
2023/09/08 03:50:03;;;;;;;8.23;4.88;;;18.40;99.90;;;;;;5082062;28;20024;-82
2023/09/08 03:52:29;;;;;;;9.48;4.93;;;18.40;99.90;;;;;;5103646;28;20040;-79
2023/09/08 03:54:55;;;;;;;6.75;4.70;;;18.30;99.90;;;;;;5085979;28;20035;-79
2023/09/08 03:57:20;;;;;;;7.07;4.78;;;18.30;99.90;;;;;;5087167;28;20016;-82
2023/09/08 03:59:46;;;;;;;9.82;5.35;;;18.30;99.90;;;;;;5087593;28;20036;-80
2023/09/08 04:02:11;;;;;;;7.95;4.43;;;18.30;99.90;;;;;;5087344;28;20032;-79
2023/09/08 04:04:37;;;;;;;6.70;5.10;;;18.30;99.90;;;;;;5089416;28;20032;-77
2023/09/08 04:07:03;;;;;;;8.45;5.28;;;18.20;99.90;;;;;;5086140;28;20053;-79
2023/09/08 04:09:28;;;;;;;6.50;4.70;;;18.20;99.90;;;;;;5104650;28;20027;-80
2023/09/08 04:11:54;;;;;;;9.23;4.80;;;18.10;99.90;;;;;;5087562;28;20054;-77
2023/09/08 04:14:23;;;;;;;6.03;4.05;;;18.10;99.90;;;;;;5087045;28;20111;-79
2023/09/08 04:16:48;;;;;;;6.07;4.65;;;18.10;99.90;;;;;;5087374;28;20032;-78
2023/09/08 04:19:14;;;;;;;7.00;5.47;;;18.10;99.90;;;;;;5088469;28;20230;-80
2023/09/08 04:21:43;;;;;;;7.45;5.10;;;18.10;99.90;;;;;;5104656;28;20320;-80
2023/09/08 04:24:11;;;;;;;8.32;5.05;;;18.00;99.90;;;;;;5088558;28;20054;-79
2023/09/08 04:26:37;;;;;;;13.77;4.95;;;18.10;99.90;;;;;;5087981;28;20508;-81
2023/09/08 04:29:02;;;;;;;12.45;5.15;;;18.10;99.90;;;;;;5087223;28;20039;-81
2023/09/08 04:31:28;;;;;;;8.35;4.97;;;18.10;99.90;;;;;;5087951;28;20024;-78
2023/09/08 04:33:54;;;;;;;6.22;4.50;;;18.00;99.90;;;;;;5087387;28;20064;-79
2023/09/08 04:36:20;;;;;;;7.38;4.72;;;18.10;99.90;;;;;;5088293;28;20028;-78
2023/09/08 04:38:45;;;;;;;7.85;4.95;;;18.10;99.90;;;;;;5086928;28;20039;-79
2023/09/08 04:41:13;;;;;;;8.50;4.63;;;18.10;99.90;;;;;;5086759;28;20061;-80
2023/09/08 04:43:39;;;;;;;9.82;4.95;;;18.10;99.90;;;;;;5086081;28;20034;-81
2023/09/08 04:46:04;;;;;;;14.48;5.05;;;18.00;99.90;;;;;;5085042;28;20032;-80
2023/09/08 04:48:30;;;;;;;7.97;5.43;;;18.10;99.90;;;;;;5088230;28;20036;-79
2023/09/08 04:50:56;;;;;;;8.48;5.55;;;18.00;99.90;;;;;;5087650;28;20035;-79
2023/09/08 04:53:22;;;;;;;11.20;4.88;;;18.10;99.90;;;;;;5102945;28;20103;-76
2023/09/08 04:55:48;;;;;;;14.40;5.35;;;18.10;99.90;;;;;;5087717;28;20028;-79
2023/09/08 04:58:13;;;;;;;8.68;5.15;;;18.00;99.90;;;;;;5091359;28;20032;-80
2023/09/08 05:00:40;;;;;;;6.63;4.93;;;18.00;99.90;;;;;;5087123;28;20032;-81
2023/09/08 05:03:06;;;;;;;9.70;4.97;;;18.00;99.90;;;;;;5086747;28;20039;-78
2023/09/08 05:05:32;;;;;;;12.20;5.40;;;18.00;99.90;;;;;;5085117;28;20019;-79
2023/09/08 05:07:59;;;;;;;13.15;4.95;;;18.00;99.90;;;;;;5109006;28;20039;-77
2023/09/08 05:10:25;;;;;;;9.88;4.45;;;18.10;99.90;;;;;;5086394;28;20099;-79
2023/09/08 05:12:51;;;;;;;9.18;4.57;;;18.00;99.90;;;;;;5086542;28;20024;-79
2023/09/08 05:15:17;;;;;;;10.63;4.78;;;18.00;99.90;;;;;;5104144;28;20039;-81
2023/09/08 05:17:45;;;;;;;6.88;4.53;;;18.10;99.90;;;;;;5103864;28;20040;-77
2023/09/08 05:20:13;;;;;;;7.85;4.97;;;18.10;99.90;;;;;;5087142;28;20085;-82
2023/09/08 05:22:39;;;;;;;11.90;5.38;;;18.10;99.90;;;;;;5104932;28;20040;-78
2023/09/08 05:25:05;;;;;;;12.15;5.38;;;18.10;99.90;;;;;;5084616;28;20042;-82
2023/09/08 05:27:31;;;;;;;6.72;4.55;;;18.10;99.90;;;;;;5103173;28;20024;-79
2023/09/08 05:29:57;;;;;;;9.13;4.93;;;18.10;99.90;;;;;;5086476;28;20020;-80
2023/09/08 05:32:23;;;;;;;9.52;4.88;;;18.10;99.90;;;;;;5102830;28;20047;-80
2023/09/08 05:34:48;;;;;;;7.72;4.65;;;18.10;99.90;;;;;;5081495;28;20032;-83
2023/09/08 05:37:14;;;;;;;8.10;4.78;;;18.10;99.90;;;;;;5096480;28;20040;-83
2023/09/08 05:39:41;;;;;;;11.27;5.50;;;18.10;99.90;;;;;;5078777;28;20031;-81
2023/09/08 05:42:08;;;;;;;11.73;5.22;;;18.10;99.90;;;;;;5096668;28;20024;-80
2023/09/08 05:44:35;;;;;;;8.35;5.25;;;18.20;99.90;;;;;;5075768;28;20062;-81
2023/09/08 05:47:00;;;;;;;9.80;5.05;;;18.20;99.90;;;;;;5079137;28;20028;-81
2023/09/08 05:49:26;;;;;;;14.45;5.28;;;18.20;99.90;;;;;;5075955;28;20026;-83
2023/09/08 05:51:54;;;;;;;11.02;5.03;;;18.20;99.90;;;;;;5093840;28;20028;-85
2023/09/08 05:54:20;;;;;;;13.70;5.25;;;18.30;99.90;;;;;;5072203;28;20115;-81
2023/09/08 05:56:45;;;;;;;10.90;5.32;;;18.30;99.90;;;;;;5098429;28;20048;-82
2023/09/08 05:59:11;;;;;;;10.57;5.55;;;18.30;99.90;;;;;;5076459;28;20441;-84
2023/09/08 06:01:37;;;;;;;9.40;4.70;;;18.30;99.90;;;;;;5094270;28;20119;-83
2023/09/08 06:04:03;;;;;;;15.05;5.53;;;18.40;99.90;;;;;;5075335;28;20023;-85
2023/09/08 06:06:29;;;;;;;8.10;5.22;;;18.40;99.90;;;;;;5074228;28;20363;-82
2023/09/08 06:08:54;;;;;;;8.63;5.00;;;18.50;99.90;;;;;;5074849;28;20089;-86
2023/09/08 06:11:22;;;;;;;11.60;5.60;;;18.50;99.90;;;;;;5073868;28;20114;-82
2023/09/08 06:13:52;;;;;;;11.55;5.63;;;18.50;99.90;;;;;;5072959;28;20450;-87
2023/09/08 06:16:17;;;;;;;11.57;5.85;;;18.50;99.90;;;;;;5090464;28;20028;-86
2023/09/08 06:18:45;;;;;;;13.35;4.85;;;18.60;99.90;;;;;;5073450;28;20092;-85
2023/09/08 06:21:11;;;;;;;10.60;5.43;;;18.60;99.90;;;;;;5073640;28;20036;-83
2023/09/08 06:23:37;;;;;;;12.88;5.30;;;18.70;99.90;;;;;;5072721;28;20034;-86
2023/09/08 06:26:02;;;;;;;10.77;4.65;;;18.70;99.90;;;;;;5073564;28;20173;-84
2023/09/08 06:28:28;;;;;;;15.50;5.13;;;18.70;99.90;;;;;;5073473;28;20135;-87
2023/09/08 06:30:54;;;;;;;8.45;5.13;;;18.80;99.90;;;;;;5071400;28;20031;-82
2023/09/08 06:33:23;;;;;;;10.63;4.55;;;18.80;99.90;;;;;;5074498;28;20032;-84
2023/09/08 06:35:50;;;;;;;6.57;4.55;;;18.80;99.90;;;;;;5071553;28;20020;-86
2023/09/08 06:38:16;;;;;;;6.90;4.10;;;18.90;99.90;;;;;;5072130;28;20054;-85
2023/09/08 06:40:42;;;;;;;11.50;4.10;;;19.00;99.90;;;;;;5090585;28;20067;-84
2023/09/08 06:43:08;;;;;;;7.82;4.55;;;19.00;99.90;;;;;;5070885;28;20563;-87
2023/09/08 06:45:35;;;;;;;12.98;4.78;;;19.00;99.90;;;;;;5075227;28;20028;-83
2023/09/08 06:48:03;;;;;;;6.82;4.13;;;19.10;99.90;;;;;;5091409;28;20111;-89
2023/09/08 06:50:30;;;;;;;11.45;4.28;;;19.20;99.90;;;;;;5096726;28;20024;-93
2023/09/08 06:52:55;;;;;;;16.20;4.90;;;19.20;99.90;;;;;;5075559;28;20132;-90
2023/09/08 06:55:21;;;;;;;9.65;4.50;;;19.30;99.90;;;;;;5093413;28;20417;-90
2023/09/08 06:57:46;;;;;;;7.10;4.18;;;19.30;99.90;;;;;;5075555;28;20028;-93
2023/09/08 07:00:17;;;;;;;13.65;4.60;;;19.30;99.90;;;;;;5076249;28;20418;-93
2023/09/08 07:02:43;;;;;;;10.90;4.53;;;19.30;99.90;;;;;;5072427;28;20027;-91
2023/09/08 07:05:13;;;;;;;12.68;4.70;;;19.40;99.90;;;;;;5074689;28;20085;-93
2023/09/08 07:07:41;;;;;;;10.27;4.43;;;19.40;99.90;;;;;;5072386;28;20456;-91
2023/09/08 07:10:07;;;;;;;6.95;4.25;;;19.40;99.90;;;;;;5072781;28;20031;-87
2023/09/08 07:12:33;;;;;;;7.43;4.32;;;19.50;99.90;;;;;;5075452;28;20039;-92
2023/09/08 07:14:59;;;;;;;6.05;3.80;;;19.50;99.90;;;;;;5073809;28;20036;-90
2023/09/08 07:17:27;;;;;;;12.68;4.30;;;19.60;99.90;;;;;;5092681;28;20070;-93
2023/09/08 07:19:53;;;;;;;9.68;4.72;;;19.60;99.90;;;;;;5074166;28;20073;-86
2023/09/08 07:22:19;;;;;;;13.90;4.55;;;19.60;99.90;;;;;;5090965;28;20036;-94
2023/09/08 07:24:45;;;;;;;8.90;4.72;;;19.70;99.90;;;;;;5072806;28;20592;-88
2023/09/08 07:27:14;;;;;;;9.60;4.45;;;19.70;99.90;;;;;;5076144;28;20103;-93
2023/09/08 07:29:42;;;;;;;10.50;4.65;;;19.80;99.90;;;;;;5092297;28;20414;-92
2023/09/08 07:32:08;;;;;;;8.93;3.85;;;19.90;99.90;;;;;;5076426;28;20355;-91
2023/09/08 07:34:33;;;;;;;6.90;3.90;;;19.90;99.90;;;;;;5090492;28;20032;-90
2023/09/08 07:37:00;;;;;;;8.18;4.10;;;20.00;99.90;;;;;;5076774;28;20027;-90
2023/09/08 07:39:26;;;;;;;8.55;3.95;;;20.10;99.90;;;;;;5071532;28;20063;-90
2023/09/08 07:41:53;;;;;;;10.15;4.78;;;20.10;99.90;;;;;;5076586;28;20124;-88
2023/09/08 07:44:21;;;;;;;12.40;4.35;;;20.20;99.90;;;;;;5076194;28;20122;-86
2023/09/08 07:46:48;;;;;;;5.22;3.72;;;20.20;99.90;;;;;;5067568;28;20089;-90
2023/09/08 07:49:14;;;;;;;7.15;3.67;;;20.20;99.90;;;;;;5074403;28;20020;-92
2023/09/08 07:51:40;;;;;;;14.95;4.32;;;20.30;99.90;;;;;;5093047;28;20121;-91
2023/09/08 07:54:06;;;;;;;11.77;4.35;;;20.30;99.90;;;;;;5072291;28;20081;-90
2023/09/08 07:56:34;;;;;;;7.68;4.22;;;20.40;99.90;;;;;;5071983;28;20036;-89
2023/09/08 07:59:02;;;;;;;9.63;3.90;;;20.40;99.90;;;;;;5093674;28;20108;-88
2023/09/08 08:01:28;;;;;;;6.28;3.72;;;20.50;99.90;;;;;;5090512;28;20024;-91
2023/09/08 08:03:54;;;;;;;11.15;4.35;;;20.50;99.90;;;;;;5092019;28;20032;-91
2023/09/08 08:06:24;;;;;;;8.23;5.18;;;20.50;99.90;;;;;;5093170;28;20139;-93
2023/09/08 08:08:49;;;;;;;12.73;4.00;;;20.60;99.90;;;;;;5088918;28;20032;-93
2023/09/08 08:11:17;;;;;;;8.80;4.60;;;20.60;99.90;;;;;;5073487;28;20020;-92
2023/09/08 08:13:43;;;;;;;10.05;4.18;;;20.60;99.90;;;;;;5073590;28;20043;-93
2023/09/08 08:16:12;;;;;;;14.65;4.55;;;20.70;99.90;;;;;;5072302;28;20103;-86
2023/09/08 08:18:37;;;;;;;9.40;4.07;;;20.70;99.90;;;;;;5071389;28;20047;-90
2023/09/08 08:21:05;;;;;;;9.52;3.97;;;20.70;99.90;;;;;;5074392;28;20024;-91
2023/09/08 08:23:33;;;;;;;8.15;4.22;;;20.80;99.90;;;;;;5072434;28;20027;-88
2023/09/08 08:26:02;;;;;;;7.90;3.67;;;20.90;99.90;;;;;;5072246;28;20071;-85
2023/09/08 08:28:28;;;;;;;7.82;3.72;;;21.00;99.90;;;;;;5083624;28;20020;-85
2023/09/08 08:30:56;;;;;;;6.70;3.47;;;21.00;99.90;;;;;;5086761;28;20024;-84
2023/09/08 08:33:22;;;;;;;7.35;3.47;;;21.00;99.90;;;;;;5067429;28;20077;-82
2023/09/08 08:35:52;;;;;;;9.38;3.55;;;21.10;99.90;;;;;;5067445;28;20460;-85
2023/09/08 08:38:17;;;;;;;16.77;4.07;;;21.10;99.90;;;;;;5069865;28;20063;-84
2023/09/08 08:40:43;;;;;;;6.90;3.17;;;21.20;99.90;;;;;;5067617;28;20055;-82
2023/09/08 08:43:11;;;;;;;5.47;3.90;;;21.20;99.90;;;;;;5067165;28;20028;-82
2023/09/08 08:45:44;;;;;;;11.73;5.13;;;21.20;99.90;;;;;;5068668;28;20120;-81
2023/09/08 08:48:13;;;;;;;10.77;3.72;;;21.30;99.90;;;;;;5068509;28;20031;-81
2023/09/08 08:50:41;;;;;;;9.68;4.40;;;21.30;99.90;;;;;;5087876;28;20115;-83
2023/09/08 08:53:12;;;;;;;7.32;3.90;;;21.40;99.90;;;;;;5064559;28;20035;-82
2023/09/08 08:55:40;;;;;;;11.38;3.97;;;21.40;99.90;;;;;;5073595;28;20055;-84
2023/09/08 08:58:06;;;;;;;6.88;3.45;;;21.40;99.90;;;;;;5085267;28;20028;-82
2023/09/08 09:00:37;;;;;;;9.60;3.88;;;21.50;99.90;;;;;;5085169;28;20024;-84
2023/09/08 09:03:07;;;;;;;9.75;3.95;;;21.50;99.90;;;;;;5083867;28;20649;-84
2023/09/08 09:05:36;;;;;;;6.03;4.15;;;21.50;99.90;;;;;;5082844;28;20110;-81
2023/09/08 09:08:03;;;;;;;7.65;3.53;;;21.60;99.90;;;;;;5069996;28;20024;-81
2023/09/08 09:10:31;;;;;;;5.45;3.55;;;21.70;99.90;;;;;;5066916;28;20034;-81
2023/09/08 09:12:57;;;;;;;6.18;3.33;;;21.70;99.90;;;;;;5063165;28;20036;-84
2023/09/08 09:15:32;;;;;;;5.20;3.38;;;21.80;99.90;;;;;;5064968;28;20028;-81
2023/09/08 09:18:04;;;;;;;6.93;3.60;;;21.90;99.90;;;;;;5063893;28;20399;-82
2023/09/08 09:20:29;;;;;;;7.25;3.20;;;22.00;99.90;;;;;;5085052;28;20024;-82
2023/09/08 09:22:57;;;;;;;7.22;3.85;;;22.00;99.90;;;;;;5084472;28;20481;-80
2023/09/08 09:25:25;;;;;;;4.60;3.42;;;22.10;99.90;;;;;;5065926;28;20020;-83
2023/09/08 09:27:55;;;;;;;7.10;3.70;;;22.20;99.90;;;;;;5067173;28;20034;-83
2023/09/08 09:30:25;;;;;;;8.77;3.67;;;22.30;99.90;;;;;;5067379;28;20051;-84
2023/09/08 09:33:04;;;;;;;9.15;3.60;;;22.30;99.90;;;;;;5069113;28;20051;-81
2023/09/08 09:35:46;;;;;;;9.85;4.07;;;22.40;99.90;;;;;;5069184;28;20028;-83
2023/09/08 09:38:13;;;;;;;4.43;3.22;;;22.50;99.90;;;;;;5069281;28;20376;-81
2023/09/08 09:40:39;;;;;;;6.38;3.47;;;22.50;99.90;;;;;;5087837;28;20047;-82
2023/09/08 09:43:05;;;;;;;7.30;3.60;;;22.50;99.90;;;;;;5070432;28;20624;-84
2023/09/08 09:45:34;;;;;;;9.02;3.75;;;22.40;99.90;;;;;;5087582;28;20216;-83
2023/09/08 09:48:03;;;;;;;8.80;3.58;;;22.40;99.90;;;;;;5069037;28;20024;-82
2023/09/08 09:50:34;;;;;;;9.95;3.90;;;22.50;99.90;;;;;;5069122;28;20028;-82
2023/09/08 09:53:07;;;;;;;6.93;3.92;;;22.60;99.90;;;;;;5066050;28;20032;-82
2023/09/08 09:55:35;;;;;;;7.47;3.20;;;22.70;99.90;;;;;;5069782;28;20472;-82
2023/09/08 09:58:03;;;;;;;10.43;3.97;;;22.80;99.90;;;;;;5087324;28;20036;-83
2023/09/08 10:00:33;;;;;;;6.70;3.78;;;22.80;99.90;;;;;;5064274;28;20515;-82
2023/09/08 10:02:59;;;;;;;7.05;3.45;;;22.90;99.90;;;;;;5086253;28;20031;-82
2023/09/08 10:05:27;;;;;;;10.52;4.15;;;23.00;99.90;;;;;;5067856;28;20032;-82
2023/09/08 10:07:53;;;;;;;12.00;3.38;;;23.10;99.90;;;;;;5067902;28;20693;-83
2023/09/08 10:10:22;;;;;;;4.18;3.20;;;23.10;99.90;;;;;;5086409;28;20056;-82
2023/09/08 10:13:05;;;;;;;4.55;3.15;;;23.10;99.90;;;;;;5087334;28;20028;-81
2023/09/08 10:15:31;;;;;;;6.07;3.80;;;23.10;99.90;;;;;;5067473;28;20023;-80
2023/09/08 10:18:04;;;;;;;8.65;3.95;;;23.10;99.90;;;;;;5070743;28;20032;-82
2023/09/08 10:20:31;;;;;;;7.10;3.70;;;23.20;99.90;;;;;;5066414;28;20040;-81
2023/09/08 10:23:08;;;;;;;12.13;3.53;;;23.30;99.90;;;;;;5069450;28;20024;-83
2023/09/08 10:25:45;;;;;;;5.65;3.30;;;23.40;99.90;;;;;;5070789;28;20056;-81
2023/09/08 10:28:12;;;;;;;7.85;3.58;;;23.40;99.90;;;;;;5067442;28;20532;-81
2023/09/08 10:30:41;;;;;;;6.63;3.03;;;23.40;99.90;;;;;;5087393;28;20051;-82
2023/09/08 10:33:10;;;;;;;5.22;3.90;;;23.40;99.90;;;;;;5085713;28;20042;-82
2023/09/08 10:35:36;;;;;;;8.15;3.85;;;23.50;99.90;;;;;;5067298;28;20035;-83
2023/09/08 10:38:21;;;;;;;8.95;3.45;;;23.60;99.90;;;;;;5084408;28;20307;-82
2023/09/08 10:40:49;;;;;;;5.18;3.58;;;23.80;99.90;;;;;;5085375;28;20032;-81
2023/09/08 10:43:15;;;;;;;8.95;3.35;;;23.90;99.90;;;;;;5087825;28;20028;-83
2023/09/08 10:45:43;;;;;;;10.80;3.08;;;24.00;99.90;;;;;;5067897;28;20037;-82
2023/09/08 10:48:13;;;;;;;8.85;3.75;;;24.10;99.90;;;;;;5067294;28;20024;-81
2023/09/08 10:50:42;;;;;;;9.18;3.80;;;24.20;99.90;;;;;;5068539;28;20038;-80
2023/09/08 10:53:21;;;;;;;5.25;3.28;;;24.20;99.90;;;;;;5069208;28;20184;-82
2023/09/08 10:55:53;;;;;;;7.50;3.55;;;24.20;99.90;;;;;;5068634;28;20123;-82
2023/09/08 10:58:20;;;;;;;5.10;3.47;;;24.30;99.90;;;;;;5070152;28;20036;-81
2023/09/08 11:00:50;;;;;;;6.57;3.15;;;24.50;99.90;;;;;;5069350;28;20035;-82
2023/09/08 11:03:28;;;;;;;8.35;3.15;;;24.50;99.90;;;;;;5067867;28;20881;-83
2023/09/08 11:05:55;;;;;;;8.05;3.53;;;24.60;99.90;;;;;;5087529;28;20079;-81
2023/09/08 11:08:21;;;;;;;4.38;3.05;;;24.50;99.90;;;;;;5064388;28;20024;-81
2023/09/08 11:10:48;;;;;;;4.05;2.92;;;24.60;99.90;;;;;;5085334;28;20666;-82
2023/09/08 11:13:14;;;;;;;16.48;4.05;;;24.70;99.90;;;;;;5086247;28;20032;-82
2023/09/08 11:15:39;;;;;;;7.65;3.70;;;24.70;99.90;;;;;;5066489;28;20027;-81
2023/09/08 11:18:06;;;;;;;6.13;3.60;;;24.80;99.90;;;;;;5066407;28;20760;-82
2023/09/08 11:20:32;;;;;;;7.85;3.15;;;25.00;99.90;;;;;;5085065;28;20069;-83
2023/09/08 11:22:57;;;;;;;6.97;3.63;;;25.10;99.90;;;;;;5085638;28;20519;-81
2023/09/08 11:25:28;;;;;;;6.25;3.90;;;25.10;99.90;;;;;;5066649;28;20111;-81
2023/09/08 11:27:59;;;;;;;4.57;3.72;;;25.30;99.90;;;;;;5085501;28;20089;-82
2023/09/08 11:30:25;;;;;;;6.45;3.80;;;25.40;99.90;;;;;;5066438;28;20042;-81
2023/09/08 11:32:50;;;;;;;4.38;3.15;;;25.50;99.90;;;;;;5067078;28;20046;-81
2023/09/08 11:35:20;;;;;;;5.45;3.45;;;25.60;99.90;;;;;;5063562;28;20444;-82
2023/09/08 11:37:46;;;;;;;11.18;4.20;;;25.60;99.90;;;;;;5068176;28;20042;-81
2023/09/08 11:40:13;;;;;;;6.72;3.47;;;25.70;99.90;;;;;;5066342;28;20067;-81
2023/09/08 11:42:45;;;;;;;5.25;3.10;;;25.80;99.90;;;;;;5085272;28;20831;-82
2023/09/08 11:45:12;;;;;;;4.85;3.13;;;25.90;99.90;;;;;;5083660;28;20035;-80
2023/09/08 11:47:43;;;;;;;5.15;3.22;;;25.90;99.90;;;;;;5084503;28;20008;-81
2023/09/08 11:50:15;;;;;;;10.53;3.43;;;26.00;99.90;;;;;;5084207;28;20016;-81
2023/09/08 11:52:43;;;;;;;9.48;3.53;;;26.10;99.90;;;;;;5065097;28;20289;-82
2023/09/08 11:55:09;;;;;;;4.93;3.13;;;26.20;99.90;;;;;;5065620;28;20043;-80
2023/09/08 11:57:37;;;;;;;12.35;3.08;;;26.20;99.90;;;;;;5067120;28;21081;-81
2023/09/08 12:00:09;;;;;;;4.35;3.40;;;26.20;99.90;;;;;;5065385;28;20028;-82
2023/09/08 12:02:36;;;;;;;5.25;3.38;;;26.20;99.90;;;;;;5082973;28;20073;-82
2023/09/08 12:05:02;;;;;;;7.25;2.80;;;26.30;99.90;;;;;;5084101;28;20032;-81
2023/09/08 12:07:28;;;;;;;6.85;3.40;;;26.30;99.90;;;;;;5063726;28;20070;-81
2023/09/08 12:09:54;;;;;;;5.97;3.20;;;26.30;99.90;;;;;;5065828;28;20051;-81
2023/09/08 12:12:22;;;;;;;6.05;3.75;;;26.30;99.90;;;;;;5065911;28;20082;-80
2023/09/08 12:14:47;;;;;;;5.85;3.00;;;26.40;99.90;;;;;;5079852;28;20391;-81
2023/09/08 12:17:17;;;;;;;5.57;3.28;;;26.50;99.90;;;;;;5065260;28;20125;-81
2023/09/08 12:19:45;;;;;;;5.47;3.80;;;26.60;99.90;;;;;;5083489;28;20118;-82
2023/09/08 12:22:12;;;;;;;4.55;3.65;;;26.60;99.90;;;;;;5061379;28;20039;-80
2023/09/08 12:24:59;;;;;;;4.90;3.30;;;26.70;99.90;;;;;;5065975;28;20034;-82
2023/09/08 12:27:26;;;;;;;5.28;3.50;;;26.80;99.90;;;;;;5084104;28;20028;-80
2023/09/08 12:30:04;;;;;;;4.50;3.25;;;26.90;99.90;;;;;;5065574;28;20048;-82
2023/09/08 12:32:33;;;;;;;7.38;3.10;;;27.00;99.90;;;;;;5065749;28;20024;-83
2023/09/08 12:35:03;;;;;;;4.55;3.03;;;27.00;99.90;;;;;;5065365;28;20081;-81
2023/09/08 12:37:33;;;;;;;5.43;3.58;;;27.00;99.90;;;;;;5082655;28;20035;-83
2023/09/08 12:40:00;;;;;;;5.28;3.03;;;27.00;99.90;;;;;;5083214;28;20023;-82
2023/09/08 12:42:29;;;;;;;7.75;3.42;;;27.00;99.90;;;;;;5064087;28;20032;-82
2023/09/08 12:44:55;;;;;;;6.97;3.25;;;27.10;99.90;;;;;;5084164;28;20028;-81
2023/09/08 12:47:20;;;;;;;8.50;3.33;;;27.30;99.80;;;;;;5083523;28;21598;-81